Observation data for Goodlett on 07/08/2020      Previous  Date  Next       Current Mesonet Observations  Soil Data  Daily Summary Page  Observations in Plain Language
KGDS 080500Z 10005KT 25/20 A2993 RMK A01 T02510197  RH  076%=      5-min Rain = 0
KGDS 080505Z 10005KT 25/20 A2994 RMK A01 T02490197  RH  077%=      5-min Rain = 0
KGDS 080510Z 11006KT 25/20 A2994 RMK A01 T02480197  RH  078%=      5-min Rain = 0
KGDS 080515Z 10006KT 25/20 A2994 RMK A01 T02480197  RH  078%=      5-min Rain = 0
KGDS 080520Z 10005KT 25/20 A2994 RMK A01 T02470198  RH  078%=      5-min Rain = 0
KGDS 080525Z 09005KT 25/20 A2994 RMK A01 T02470198  RH  079%=      5-min Rain = 0
KGDS 080530Z 10006KT 25/20 A2994 RMK A01 T02470199  RH  079%=      5-min Rain = 0
KGDS 080535Z 11006KT 25/20 A2994 RMK A01 T02480199  RH  079%=      5-min Rain = 0
KGDS 080540Z 09005KT 25/20 A2994 RMK A01 T02470200  RH  080%=      5-min Rain = 0
KGDS 080545Z 11005KT 25/20 A2994 RMK A01 T02450200  RH  081%=      5-min Rain = 0
KGDS 080550Z 11005KT 25/20 A2994 RMK A01 T02460200  RH  080%=      5-min Rain = 0
KGDS 080555Z 10004KT 25/20 A2994 RMK A01 T02450200  RH  081%=      5-min Rain = 0
KGDS 080600Z 10004KT 24/20 A2994 RMK A01 T02430200  RH  082%=      5-min Rain = 0
KGDS 080605Z 10004KT 24/20 A2994 RMK A01 T02420200  RH  082%=      5-min Rain = 0
KGDS 080610Z 10005KT 24/20 A2994 RMK A01 T02420201  RH  082%=      5-min Rain = 0
KGDS 080615Z 10005KT 24/20 A2994 RMK A01 T02420200  RH  082%=      5-min Rain = 0
KGDS 080620Z 10005KT 24/20 A2993 RMK A01 T02410200  RH  082%=      5-min Rain = 0
KGDS 080625Z 11005KT 24/20 A2993 RMK A01 T02410200  RH  083%=      5-min Rain = 0
KGDS 080630Z 11004KT 24/20 A2993 RMK A01 T02400201  RH  083%=      5-min Rain = 0
KGDS 080635Z 11004KT 24/20 A2993 RMK A01 T02390200  RH  084%=      5-min Rain = 0
KGDS 080640Z 10004KT 24/20 A2993 RMK A01 T02370199  RH  084%=      5-min Rain = 0
KGDS 080645Z 11006KT 24/20 A2993 RMK A01 T02360199  RH  084%=      5-min Rain = 0
KGDS 080650Z 12006KT 24/20 A2992 RMK A01 T02380202  RH  085%=      5-min Rain = 0
KGDS 080655Z 12006KT 24/20 A2992 RMK A01 T02390202  RH  084%=      5-min Rain = 0
KGDS 080700Z 12006KT 24/20 A2991 RMK A01 T02380202  RH  085%=      5-min Rain = 0
KGDS 080705Z 12005KT 24/20 A2992 RMK A01 T02370202  RH  085%=      5-min Rain = 0
KGDS 080710Z 11005KT 24/20 A2991 RMK A01 T02360202  RH  086%=      5-min Rain = 0
KGDS 080715Z 10004KT 23/20 A2991 RMK A01 T02340201  RH  087%=      5-min Rain = 0
KGDS 080720Z 10003KT 23/20 A2992 RMK A01 T02330202  RH  088%=      5-min Rain = 0
KGDS 080725Z 10002KT 23/20 A2992 RMK A01 T02320202  RH  088%=      5-min Rain = 0
KGDS 080730Z 12002KT 23/20 A2992 RMK A01 T02330202  RH  088%=      5-min Rain = 0
KGDS 080735Z 11003KT 23/20 A2992 RMK A01 T02330203  RH  088%=      5-min Rain = 0
KGDS 080740Z 11005KT 23/20 A2991 RMK A01 T02320201  RH  088%=      5-min Rain = 0
KGDS 080745Z 10006KT 23/20 A2991 RMK A01 T02300202  RH  089%=      5-min Rain = 0
KGDS 080750Z 10005KT 23/20 A299 RMK A01 T02300204  RH  090%=      5-min Rain = 0
KGDS 080755Z 11005KT 23/20 A299 RMK A01 T02290203  RH  090%=      5-min Rain = 0
KGDS 080800Z 11005KT 23/20 A299 RMK A01 T02300204  RH  090%=      5-min Rain = 0
KGDS 080805Z 11005KT 23/21 A299 RMK A01 T02310205  RH  090%=      5-min Rain = 0
KGDS 080810Z 12006KT 23/21 A2989 RMK A01 T02320205  RH  090%=      5-min Rain = 0
KGDS 080815Z 12007KT 23/21 A2989 RMK A01 T02310205  RH  090%=      5-min Rain = 0
KGDS 080820Z 12006KT 23/20 A2989 RMK A01 T02310204  RH  090%=      5-min Rain = 0
KGDS 080825Z 13006KT 23/20 A2989 RMK A01 T02300204  RH  090%=      5-min Rain = 0
KGDS 080830Z 13006KT 23/20 A2989 RMK A01 T02300204  RH  091%=      5-min Rain = 0
KGDS 080835Z 13005KT 23/20 A2989 RMK A01 T02310204  RH  090%=      5-min Rain = 0
KGDS 080840Z 13005KT 23/20 A2989 RMK A01 T02300204  RH  091%=      5-min Rain = 0
KGDS 080845Z 13004KT 23/21 A2989 RMK A01 T02300205  RH  091%=      5-min Rain = 0
KGDS 080850Z 13005KT 23/21 A2989 RMK A01 T02290205  RH  092%=      5-min Rain = 0
KGDS 080855Z 14005KT 23/21 A2989 RMK A01 T02280205  RH  092%=      5-min Rain = 0
KGDS 080900Z 16005KT 23/21 A2989 RMK A01 T02290207  RH  092%=      5-min Rain = 0
KGDS 080905Z 15007KT 23/21 A2989 RMK A01 T02320209  RH  092%=      5-min Rain = 0
KGDS 080910Z 15008KT 23/21 A2989 RMK A01 T02330209  RH  092%=      5-min Rain = 0
KGDS 080915Z 16008KT 23/21 A2989 RMK A01 T02340211  RH  092%=      5-min Rain = 0
KGDS 080920Z 16007KT 23/21 A299 RMK A01 T02340211  RH  092%=      5-min Rain = 0
KGDS 080925Z 17006KT 23/21 A299 RMK A01 T02340210  RH  092%=      5-min Rain = 0
KGDS 080930Z 18005KT 23/21 A299 RMK A01 T02340210  RH  092%=      5-min Rain = 0
KGDS 080935Z 17006KT 23/21 A299 RMK A01 T02340210  RH  092%=      5-min Rain = 0
KGDS 080940Z 17006KT 23/21 A299 RMK A01 T02340209  RH  092%=      5-min Rain = 0
KGDS 080945Z 17005KT 23/21 A2991 RMK A01 T02330208  RH  091%=      5-min Rain = 0
KGDS 080950Z 18005KT 23/21 A2991 RMK A01 T02330207  RH  091%=      5-min Rain = 0
KGDS 080955Z 18006KT 23/21 A2991 RMK A01 T02330206  RH  090%=      5-min Rain = 0
KGDS 081000Z 18006KT 23/21 A2991 RMK A01 T02330205  RH  090%=      5-min Rain = 0
KGDS 081005Z 18006KT 23/20 A2991 RMK A01 T02320204  RH  089%=      5-min Rain = 0
KGDS 081010Z 18006KT 23/20 A2991 RMK A01 T02310203  RH  089%=      5-min Rain = 0
KGDS 081015Z 17006KT 23/20 A2991 RMK A01 T02310202  RH  089%=      5-min Rain = 0
KGDS 081020Z 17006KT 23/20 A2991 RMK A01 T02290201  RH  089%=      5-min Rain = 0
KGDS 081025Z 16006KT 23/20 A2991 RMK A01 T02280201  RH  090%=      5-min Rain = 0
KGDS 081030Z 17005KT 23/20 A2991 RMK A01 T02270201  RH  091%=      5-min Rain = 0
KGDS 081035Z 17004KT 23/20 A2991 RMK A01 T02260201  RH  091%=      5-min Rain = 0
KGDS 081040Z 15004KT 23/20 A2991 RMK A01 T02250200  RH  091%=      5-min Rain = 0
KGDS 081045Z 14004KT 22/20 A2991 RMK A01 T02230198  RH  091%=      5-min Rain = 0
KGDS 081050Z 14004KT 22/20 A2991 RMK A01 T02220198  RH  092%=      5-min Rain = 0
KGDS 081055Z 13004KT 22/20 A2991 RMK A01 T02210198  RH  092%=      5-min Rain = 0
KGDS 081100Z 13004KT 22/20 A2991 RMK A01 T02190197  RH  093%=      5-min Rain = 0
KGDS 081105Z 13004KT 22/20 A2991 RMK A01 T02180198  RH  093%=      5-min Rain = 0
KGDS 081110Z 13004KT 22/20 A2991 RMK A01 T02200199  RH  093%=      5-min Rain = 0
KGDS 081115Z 13004KT 22/20 A2991 RMK A01 T02200199  RH  093%=      5-min Rain = 0
KGDS 081120Z 14005KT 22/20 A2991 RMK A01 T02190198  RH  093%=      5-min Rain = 0
KGDS 081125Z 14005KT 22/20 A2991 RMK A01 T02190199  RH  094%=      5-min Rain = 0
KGDS 081130Z 14005KT 22/20 A2991 RMK A01 T02190199  RH  094%=      5-min Rain = 0
KGDS 081135Z 13006KT 22/20 A2991 RMK A01 T02180199  RH  094%=      5-min Rain = 0
KGDS 081140Z 13005KT 22/20 A2992 RMK A01 T02180199  RH  094%=      5-min Rain = 0
KGDS 081145Z 13005KT 22/20 A2992 RMK A01 T02190201  RH  095%=      5-min Rain = 0
KGDS 081150Z 14006KT 22/20 A2992 RMK A01 T02190201  RH  095%=      5-min Rain = 0
KGDS 081155Z 15005KT 22/20 A2992 RMK A01 T02190201  RH  095%=      5-min Rain = 0
KGDS 081200Z 15005KT 22/20 A2992 RMK A01 T02190201  RH  095%=      5-min Rain = 0
KGDS 081205Z 15005KT 22/20 A2992 RMK A01 T02210202  RH  094%=      5-min Rain = 0
KGDS 081210Z 16006KT 22/20 A2992 RMK A01 T02240204  RH  093%=      5-min Rain = 0
KGDS 081215Z 15006KT 23/20 A2991 RMK A01 T02270203  RH  092%=      5-min Rain = 0
KGDS 081220Z 16006KT 23/20 A2991 RMK A01 T02290203  RH  091%=      5-min Rain = 0
KGDS 081225Z 17006KT 23/20 A2991 RMK A01 T02300203  RH  090%=      5-min Rain = 0
KGDS 081230Z 17006KT 23/20 A2991 RMK A01 T02320203  RH  089%=      5-min Rain = 0
KGDS 081235Z 17006KT 24/20 A2991 RMK A01 T02350204  RH  088%=      5-min Rain = 0
KGDS 081240Z 17006KT 24/20 A2991 RMK A01 T02380204  RH  086%=      5-min Rain = 0
KGDS 081245Z 17007KT 24/20 A2991 RMK A01 T02400204  RH  085%=      5-min Rain = 0
KGDS 081250Z 18007KT 24/20 A2991 RMK A01 T02420204  RH  084%=      5-min Rain = 0
KGDS 081255Z 19006KT 24/20 A2991 RMK A01 T02440204  RH  083%=      5-min Rain = 0
KGDS 081300Z 19005KT 25/20 A2991 RMK A01 T02470204  RH  081%=      5-min Rain = 0
KGDS 081305Z 19006KT 25/20 A2991 RMK A01 T02480202  RH  080%=      5-min Rain = 0
KGDS 081310Z 18007KT 25/20 A2991 RMK A01 T02520202  RH  078%=      5-min Rain = 0
KGDS 081315Z 18008KT 25/20 A2991 RMK A01 T02540201  RH  077%=      5-min Rain = 0
KGDS 081320Z 18008KT 26/20 A2991 RMK A01 T02570201  RH  076%=      5-min Rain = 0
KGDS 081325Z 17007KT 26/20 A2992 RMK A01 T02590201  RH  074%=      5-min Rain = 0
KGDS 081330Z 17008KT 26/20 A2992 RMK A01 T02610201  RH  074%=      5-min Rain = 0
KGDS 081335Z 18007KT 26/20 A2992 RMK A01 T02630202  RH  073%=      5-min Rain = 0
KGDS 081340Z 17008KT 27/20 A2992 RMK A01 T02660201  RH  071%=      5-min Rain = 0
KGDS 081345Z 17009KT 27/20 A2992 RMK A01 T02660200  RH  071%=      5-min Rain = 0
KGDS 081350Z 17009KT 27/20 A2992 RMK A01 T02670199  RH  070%=      5-min Rain = 0
KGDS 081355Z 16009KT 27/20 A2992 RMK A01 T02680199  RH  070%=      5-min Rain = 0
KGDS 081400Z 17008KT 27/20 A2992 RMK A01 T02720199  RH  068%=      5-min Rain = 0
KGDS 081405Z 17008KT 27/20 A2992 RMK A01 T02730200  RH  068%=      5-min Rain = 0
KGDS 081410Z 17009KT 28/20 A2991 RMK A01 T02750200  RH  067%=      5-min Rain = 0
KGDS 081415Z 17010KT 28/20 A2991 RMK A01 T02760199  RH  066%=      5-min Rain = 0
KGDS 081420Z 17008KT 28/20 A2991 RMK A01 T02770200  RH  066%=      5-min Rain = 0
KGDS 081425Z 18008KT 28/20 A2991 RMK A01 T02790199  RH  065%=      5-min Rain = 0
KGDS 081430Z 17008KT 28/20 A2991 RMK A01 T02830199  RH  064%=      5-min Rain = 0
KGDS 081435Z 17009KT 28/20 A2991 RMK A01 T02840197  RH  063%=      5-min Rain = 0
KGDS 081440Z 17008KT 29/20 A2991 RMK A01 T02870197  RH  062%=      5-min Rain = 0
KGDS 081445Z 18009KT 29/20 A2991 RMK A01 T02910197  RH  060%=      5-min Rain = 0
KGDS 081450Z 18010KT 29/20 A2991 RMK A01 T02930197  RH  059%=      5-min Rain = 0
KGDS 081455Z 19009KT 29/20 A2991 RMK A01 T02920197  RH  060%=      5-min Rain = 0
KGDS 081500Z 19010KT 29/20 A299 RMK A01 T02940197  RH  059%=      5-min Rain = 0
KGDS 081505Z 18010KT 30/20 A299 RMK A01 T02950198  RH  059%=      5-min Rain = 0
KGDS 081510Z 17009G15KT 30/20 A299 RMK A01 T02990198  RH  058%=      5-min Rain = 0
KGDS 081515Z 18009G14KT 30/20 A299 RMK A01 T03000199  RH  058%=      5-min Rain = 0
KGDS 081520Z 17009KT 30/20 A299 RMK A01 T03000199  RH  058%=      5-min Rain = 0
KGDS 081525Z 17009KT 30/20 A299 RMK A01 T02990199  RH  058%=      5-min Rain = 0
KGDS 081530Z 19008G14KT 30/20 A299 RMK A01 T03040199  RH  057%=      5-min Rain = 0
KGDS 081535Z 17007KT 31/20 A299 RMK A01 T03070200  RH  056%=      5-min Rain = 0
KGDS 081540Z 17008KT 31/20 A299 RMK A01 T03070199  RH  056%=      5-min Rain = 0
KGDS 081545Z 19010KT 31/20 A299 RMK A01 T03080198  RH  055%=      5-min Rain = 0
KGDS 081550Z 18009G15KT 31/20 A299 RMK A01 T03110199  RH  055%=      5-min Rain = 0
KGDS 081555Z 16007KT 31/20 A2989 RMK A01 T03130198  RH  053%=      5-min Rain = 0
KGDS 081600Z 19008KT 32/20 A299 RMK A01 T03180199  RH  052%=      5-min Rain = 0
KGDS 081605Z 19006KT 32/20 A299 RMK A01 T03180199  RH  052%=      5-min Rain = 0
KGDS 081610Z 17009KT 32/20 A299 RMK A01 T03220201  RH  052%=      5-min Rain = 0
KGDS 081615Z 18010G15KT 32/20 A299 RMK A01 T03240199  RH  051%=      5-min Rain = 0
KGDS 081620Z 19009KT 32/20 A299 RMK A01 T03240198  RH  050%=      5-min Rain = 0
KGDS 081625Z 17007KT 33/20 A299 RMK A01 T03250195  RH  049%=      5-min Rain = 0
KGDS 081630Z 19007KT 32/20 A2989 RMK A01 T03210195  RH  050%=      5-min Rain = 0
KGDS 081635Z 19009KT 32/20 A2989 RMK A01 T03230195  RH  050%=      5-min Rain = 0
KGDS 081640Z 18006G11KT 33/20 A2989 RMK A01 T03250198  RH  050%=      5-min Rain = 0
KGDS 081645Z 19006KT 33/20 A2989 RMK A01 T03320200  RH  049%=      5-min Rain = 0
KGDS 081650Z 20008G13KT 33/20 A2989 RMK A01 T03320199  RH  048%=      5-min Rain = 0
KGDS 081655Z 22004KT 33/20 A2989 RMK A01 T03310199  RH  049%=      5-min Rain = 0
KGDS 081700Z 19007KT 33/20 A2989 RMK A01 T03340201  RH  048%=      5-min Rain = 0
KGDS 081705Z 20005G10KT 34/20 A2989 RMK A01 T03350201  RH  048%=      5-min Rain = 0
KGDS 081710Z 18007KT 34/20 A2989 RMK A01 T03350201  RH  048%=      5-min Rain = 0
KGDS 081715Z 18010KT 34/20 A2989 RMK A01 T03400201  RH  047%=      5-min Rain = 0
KGDS 081720Z 19007G12KT 34/20 A2988 RMK A01 T03410201  RH  047%=      5-min Rain = 0
KGDS 081725Z 20010G16KT 35/20 A2988 RMK A01 T03450196  RH  044%=      5-min Rain = 0
KGDS 081730Z 19008KT 35/20 A2988 RMK A01 T03490195  RH  043%=      5-min Rain = 0
KGDS 081735Z 19009G15KT 35/20 A2988 RMK A01 T03510196  RH  043%=      5-min Rain = 0
KGDS 081740Z 18009G14KT 36/20 A2988 RMK A01 T03550200  RH  043%=      5-min Rain = 0
KGDS 081745Z 17011KT 36/19 A2987 RMK A01 T03560192  RH  041%=      5-min Rain = 0
KGDS 081750Z 17007G12KT 35/19 A2987 RMK A01 T03530191  RH  041%=      5-min Rain = 0
KGDS 081755Z 18009KT 36/19 A2987 RMK A01 T03550189  RH  040%=      5-min Rain = 0
KGDS 081800Z 17009KT 35/19 A2987 RMK A01 T03520189  RH  041%=      5-min Rain = 0
KGDS 081805Z 21009KT 35/19 A2987 RMK A01 T03540192  RH  041%=      5-min Rain = 0
KGDS 081810Z 19010G15KT 36/19 A2986 RMK A01 T03550193  RH  041%=      5-min Rain = 0
KGDS 081815Z 17009KT 36/19 A2986 RMK A01 T03550191  RH  040%=      5-min Rain = 0
KGDS 081820Z 16010G15KT 36/19 A2986 RMK A01 T03600191  RH  039%=      5-min Rain = 0
KGDS 081825Z 18010G15KT 37/19 A2986 RMK A01 T03650190  RH  038%=      5-min Rain = 0
KGDS 081830Z 18008G15KT 36/19 A2986 RMK A01 T03630189  RH  038%=      5-min Rain = 0
KGDS 081835Z 19010G15KT 36/19 A2986 RMK A01 T03640185  RH  037%=      5-min Rain = 0
KGDS 081840Z 16005KT 36/19 A2985 RMK A01 T03610189  RH  039%=      5-min Rain = 0
KGDS 081845Z 19008G13KT 36/19 A2985 RMK A01 T03600192  RH  040%=      5-min Rain = 0
KGDS 081850Z 16010G15KT 36/19 A2985 RMK A01 T03620191  RH  039%=      5-min Rain = 0
KGDS 081855Z 17006G11KT 36/19 A2985 RMK A01 T03620187  RH  038%=      5-min Rain = 0
KGDS 081900Z 19012KT 37/18 A2984 RMK A01 T03710182  RH  035%=      5-min Rain = 0
KGDS 081905Z 21008G14KT 37/17 A2984 RMK A01 T03680173  RH  033%=      5-min Rain = 0
KGDS 081910Z 21010G18KT 37/17 A2984 RMK A01 T03700172  RH  033%=      5-min Rain = 0
KGDS 081915Z 20013KT 37/17 A2984 RMK A01 T03720174  RH  033%=      5-min Rain = 0
KGDS 081920Z 18009G15KT 37/18 A2984 RMK A01 T03690175  RH  034%=      5-min Rain = 0
KGDS 081925Z 19009KT 37/17 A2984 RMK A01 T03690171  RH  033%=      5-min Rain = 0
KGDS 081930Z 20012G22KT 37/17 A2983 RMK A01 T03730166  RH  031%=      5-min Rain = 0
KGDS 081935Z 19009KT 38/17 A2983 RMK A01 T03760167  RH  031%=      5-min Rain = 0
KGDS 081940Z 20008G13KT 38/17 A2983 RMK A01 T03750174  RH  032%=      5-min Rain = 0
KGDS 081945Z 20011G17KT 38/17 A2982 RMK A01 T03840172  RH  030%=      5-min Rain = 0
KGDS 081950Z 18012KT 38/17 A2982 RMK A01 T03790171  RH  031%=      5-min Rain = 0
KGDS 081955Z 20013G18KT 38/17 A2982 RMK A01 T03780172  RH  031%=      5-min Rain = 0
KGDS 082000Z 21010G16KT 38/17 A2982 RMK A01 T03750170  RH  031%=      5-min Rain = 0
KGDS 082005Z 20011KT 38/18 A2982 RMK A01 T03810175  RH  032%=      5-min Rain = 0
KGDS 082010Z 19011G16KT 38/18 A2981 RMK A01 T03790178  RH  033%=      5-min Rain = 0
KGDS 082015Z 18009G16KT 38/17 A2981 RMK A01 T03780171  RH  031%=      5-min Rain = 0
KGDS 082020Z 18012G17KT 38/17 A2981 RMK A01 T03800171  RH  031%=      5-min Rain = 0
KGDS 082025Z 20013G19KT 38/16 A2981 RMK A01 T03840162  RH  028%=      5-min Rain = 0
KGDS 082030Z 20011G21KT 39/16 A2981 RMK A01 T03850163  RH  029%=      5-min Rain = 0
KGDS 082035Z 21010G16KT 39/17 A2981 RMK A01 T03870171  RH  030%=      5-min Rain = 0
KGDS 082040Z 18012G18KT 38/17 A2981 RMK A01 T03830165  RH  029%=      5-min Rain = 0
KGDS 082045Z 18009G17KT 38/17 A298 RMK A01 T03810165  RH  030%=      5-min Rain = 0
KGDS 082050Z 18015G20KT 39/17 A298 RMK A01 T03870170  RH  030%=      5-min Rain = 0
KGDS 082055Z 18011G17KT 38/16 A298 RMK A01 T03830163  RH  029%=      5-min Rain = 0
KGDS 082100Z 18011G17KT 38/17 A298 RMK A01 T03810165  RH  030%=      5-min Rain = 0
KGDS 082105Z 18010G16KT 39/17 A298 RMK A01 T03850169  RH  030%=      5-min Rain = 0
KGDS 082110Z 19014G19KT 39/17 A298 RMK A01 T03880166  RH  029%=      5-min Rain = 0
KGDS 082115Z 20013G19KT 39/16 A2979 RMK A01 T03900162  RH  028%=      5-min Rain = 0
KGDS 082120Z 18014G19KT 39/18 A2979 RMK A01 T03880175  RH  030%=      5-min Rain = 0
KGDS 082125Z 16009G15KT 38/18 A2979 RMK A01 T03810180  RH  033%=      5-min Rain = 0
KGDS 082130Z 17013G18KT 39/18 A2979 RMK A01 T03900176  RH  030%=      5-min Rain = 0
KGDS 082135Z 16010G15KT 39/18 A2979 RMK A01 T03890177  RH  031%=      5-min Rain = 0
KGDS 082140Z 16009G18KT 39/17 A2979 RMK A01 T03850173  RH  031%=      5-min Rain = 0
KGDS 082145Z 20009KT 39/16 A2979 RMK A01 T03900164  RH  028%=      5-min Rain = 0
KGDS 082150Z 16013KT 39/18 A2979 RMK A01 T03900176  RH  030%=      5-min Rain = 0
KGDS 082155Z 17011G16KT 39/18 A2978 RMK A01 T03870177  RH  031%=      5-min Rain = 0
KGDS 082200Z 17010G17KT 39/18 A2978 RMK A01 T03880175  RH  030%=      5-min Rain = 0
KGDS 082205Z 17014G20KT 39/17 A2978 RMK A01 T03910170  RH  029%=      5-min Rain = 0
KGDS 082210Z 15010G15KT 39/17 A2978 RMK A01 T03880173  RH  030%=      5-min Rain = 0
KGDS 082215Z 15013G18KT 39/17 A2978 RMK A01 T03880174  RH  030%=      5-min Rain = 0
KGDS 082220Z 16011G16KT 39/18 A2978 RMK A01 T03880175  RH  030%=      5-min Rain = 0
KGDS 082225Z 17013G19KT 39/18 A2977 RMK A01 T03880179  RH  031%=      5-min Rain = 0
KGDS 082230Z 15010G15KT 39/18 A2977 RMK A01 T03870177  RH  031%=      5-min Rain = 0
KGDS 082235Z 16013G18KT 39/18 A2977 RMK A01 T03860175  RH  031%=      5-min Rain = 0
KGDS 082240Z 15014G22KT 39/18 A2977 RMK A01 T03860176  RH  031%=      5-min Rain = 0
KGDS 082245Z 17012KT 39/18 A2977 RMK A01 T03850177  RH  031%=      5-min Rain = 0
KGDS 082250Z 17013G19KT 39/18 A2977 RMK A01 T03900178  RH  031%=      5-min Rain = 0
KGDS 082255Z 16012KT 39/18 A2977 RMK A01 T03860176  RH  031%=      5-min Rain = 0
KGDS 082300Z 14011KT 39/18 A2976 RMK A01 T03850175  RH  031%=      5-min Rain = 0
KGDS 082305Z 16012G17KT 39/18 A2976 RMK A01 T03860177  RH  031%=      5-min Rain = 0
KGDS 082310Z 16011KT 39/18 A2976 RMK A01 T03880177  RH  031%=      5-min Rain = 0
KGDS 082315Z 17012G19KT 39/18 A2976 RMK A01 T03880175  RH  030%=      5-min Rain = 0
KGDS 082320Z 16012G17KT 39/17 A2976 RMK A01 T03860173  RH  030%=      5-min Rain = 0
KGDS 082325Z 16011KT 39/17 A2976 RMK A01 T03850172  RH  030%=      5-min Rain = 0
KGDS 082330Z 15013G18KT 39/17 A2976 RMK A01 T03850173  RH  030%=      5-min Rain = 0
KGDS 082335Z 15013KT 39/17 A2976 RMK A01 T03850172  RH  030%=      5-min Rain = 0
KGDS 082340Z 16012G18KT 39/17 A2976 RMK A01 T03860171  RH  030%=      5-min Rain = 0
KGDS 082345Z 16010G15KT 39/17 A2976 RMK A01 T03860171  RH  030%=      5-min Rain = 0
KGDS 082350Z 16011G18KT 39/17 A2975 RMK A01 T03860170  RH  030%=      5-min Rain = 0
KGDS 082355Z 15014KT 38/17 A2975 RMK A01 T03840170  RH  030%=      5-min Rain = 0
KGDS 090000Z 14013G18KT 38/17 A2975 RMK A01 T03820170  RH  030%=      5-min Rain = 0
KGDS 090005Z 15012KT 38/17 A2975 RMK A01 T03820170  RH  030%=      5-min Rain = 0
KGDS 090010Z 17013KT 38/17 A2975 RMK A01 T03830170  RH  030%=      5-min Rain = 0
KGDS 090015Z 16013KT 38/17 A2975 RMK A01 T03820169  RH  030%=      5-min Rain = 0
KGDS 090020Z 16010KT 38/17 A2975 RMK A01 T03820169  RH  030%=      5-min Rain = 0
KGDS 090025Z 15012G17KT 38/17 A2975 RMK A01 T03810171  RH  031%=      5-min Rain = 0
KGDS 090030Z 16013G19KT 38/17 A2975 RMK A01 T03800169  RH  031%=      5-min Rain = 0
KGDS 090035Z 15011KT 38/17 A2975 RMK A01 T03790171  RH  031%=      5-min Rain = 0
KGDS 090040Z 15013G19KT 38/17 A2975 RMK A01 T03790170  RH  031%=      5-min Rain = 0
KGDS 090045Z 16013KT 38/17 A2976 RMK A01 T03770167  RH  031%=      5-min Rain = 0
KGDS 090050Z 16012KT 38/17 A2976 RMK A01 T03760167  RH  031%=      5-min Rain = 0
KGDS 090055Z 15012KT 38/17 A2976 RMK A01 T03760170  RH  031%=      5-min Rain = 0
KGDS 090100Z 15014KT 37/17 A2976 RMK A01 T03730174  RH  033%=      5-min Rain = 0
KGDS 090105Z 14013KT 37/17 A2976 RMK A01 T03700174  RH  033%=      5-min Rain = 0
KGDS 090110Z 15013KT 37/18 A2976 RMK A01 T03690175  RH  034%=      5-min Rain = 0
KGDS 090115Z 15010KT 37/17 A2976 RMK A01 T03680174  RH  034%=      5-min Rain = 0
KGDS 090120Z 15012KT 37/17 A2976 RMK A01 T03670173  RH  034%=      5-min Rain = 0
KGDS 090125Z 14011KT 37/17 A2976 RMK A01 T03650174  RH  034%=      5-min Rain = 0
KGDS 090130Z 14013KT 36/18 A2976 RMK A01 T03630175  RH  035%=      5-min Rain = 0
KGDS 090135Z 15011KT 36/18 A2976 RMK A01 T03610176  RH  035%=      5-min Rain = 0
KGDS 090140Z 15010KT 36/18 A2976 RMK A01 T03580177  RH  036%=      5-min Rain = 0
KGDS 090145Z 15011KT 36/18 A2976 RMK A01 T03560178  RH  037%=      5-min Rain = 0
KGDS 090150Z 14009KT 35/18 A2976 RMK A01 T03540179  RH  038%=      5-min Rain = 0
KGDS 090155Z 14010KT 35/18 A2976 RMK A01 T03510180  RH  038%=      5-min Rain = 0
KGDS 090200Z 14011KT 35/18 A2976 RMK A01 T03500181  RH  039%=      5-min Rain = 0
KGDS 090205Z 15011KT 35/18 A2976 RMK A01 T03490182  RH  039%=      5-min Rain = 0
KGDS 090210Z 15010KT 35/18 A2976 RMK A01 T03470183  RH  040%=      5-min Rain = 0
KGDS 090215Z 14011KT 35/18 A2976 RMK A01 T03450183  RH  041%=      5-min Rain = 0
KGDS 090220Z 14010KT 34/18 A2976 RMK A01 T03420184  RH  041%=      5-min Rain = 0
KGDS 090225Z 14009KT 34/19 A2976 RMK A01 T03400185  RH  042%=      5-min Rain = 0
KGDS 090230Z 14009KT 34/19 A2976 RMK A01 T03370185  RH  043%=      5-min Rain = 0
KGDS 090235Z 13008KT 33/19 A2976 RMK A01 T03330185  RH  044%=      5-min Rain = 0
KGDS 090240Z 13009KT 33/19 A2976 RMK A01 T03300186  RH  045%=      5-min Rain = 0
KGDS 090245Z 14009KT 33/19 A2976 RMK A01 T03280187  RH  046%=      5-min Rain = 0
KGDS 090250Z 13009KT 33/19 A2976 RMK A01 T03280187  RH  046%=      5-min Rain = 0
KGDS 090255Z 13009KT 33/19 A2976 RMK A01 T03270188  RH  046%=      5-min Rain = 0
KGDS 090300Z 13009KT 33/19 A2976 RMK A01 T03250188  RH  047%=      5-min Rain = 0
KGDS 090305Z 13009KT 32/19 A2977 RMK A01 T03240189  RH  047%=      5-min Rain = 0
KGDS 090310Z 13009KT 32/19 A2977 RMK A01 T03220188  RH  048%=      5-min Rain = 0
KGDS 090315Z 14008KT 32/19 A2977 RMK A01 T03210188  RH  048%=      5-min Rain = 0
KGDS 090320Z 14008KT 32/19 A2978 RMK A01 T03200188  RH  048%=      5-min Rain = 0
KGDS 090325Z 14010KT 32/19 A2978 RMK A01 T03200188  RH  048%=      5-min Rain = 0
KGDS 090330Z 14010KT 32/19 A2978 RMK A01 T03210188  RH  048%=      5-min Rain = 0
KGDS 090335Z 14010KT 32/19 A2978 RMK A01 T03200189  RH  048%=      5-min Rain = 0
KGDS 090340Z 14010KT 32/19 A2978 RMK A01 T03200189  RH  049%=      5-min Rain = 0
KGDS 090345Z 14009KT 32/19 A2978 RMK A01 T03180189  RH  049%=      5-min Rain = 0
KGDS 090350Z 13008KT 32/19 A2978 RMK A01 T03150189  RH  050%=      5-min Rain = 0
KGDS 090355Z 12008KT 31/19 A2978 RMK A01 T03090191  RH  052%=      5-min Rain = 0
KGDS 090400Z 13009KT 31/19 A2978 RMK A01 T03060191  RH  053%=      5-min Rain = 0
KGDS 090405Z 13009KT 31/19 A2978 RMK A01 T03070192  RH  053%=      5-min Rain = 0
KGDS 090410Z 14010KT 31/19 A2978 RMK A01 T03060192  RH  053%=      5-min Rain = 0
KGDS 090415Z 14009KT 31/19 A2978 RMK A01 T03060192  RH  053%=      5-min Rain = 0
KGDS 090420Z 14009KT 30/19 A2978 RMK A01 T03040192  RH  054%=      5-min Rain = 0
KGDS 090425Z 14009KT 30/19 A2978 RMK A01 T03040193  RH  054%=      5-min Rain = 0
KGDS 090430Z 14010KT 30/19 A2978 RMK A01 T03020193  RH  055%=      5-min Rain = 0
KGDS 090435Z 14011KT 30/19 A2977 RMK A01 T03020194  RH  055%=      5-min Rain = 0
KGDS 090440Z 15013KT 30/20 A2977 RMK A01 T03030196  RH  056%=      5-min Rain = 0
KGDS 090445Z 15013KT 30/20 A2977 RMK A01 T03040198  RH  056%=      5-min Rain = 0
KGDS 090450Z 15012G17KT 30/20 A2977 RMK A01 T03030201  RH  058%=      5-min Rain = 0
KGDS 090455Z 15012KT 30/20 A2977 RMK A01 T03020202  RH  058%=      5-min Rain = 0

Page generated in 0.0096 seconds.